Port Wash, New York
Current Conditions -  °F | °C
As of 8:51 AM on Wednesday 28 Jan 2015 (Local Time) from KLGA Reporting Station
Scattered Clouds Scattered Clouds  
Wind Chill:   Ceiling: Unl
Heat Index: 20°   Visibility: 10mi
Dew Point:   Wind: 15mph
Humidity: 48%   Direction: 320°NW
Pressure: 30.03"   Gusts: 24mph
Location:  40.8387°N, 73.6912°W
Report Text: KLGA 281351Z 32013G21KT 10SM SCT100 SCT140 M07/M16 A3003 RMK AO2 SLP167 ACSL W T10671161 $
Loading
Personal Weather Stations






























Interactive Weather Map New forecast layout! Learn more

10-Day Weather Forecast

Advertisements
Track Severe Weather on mobile